Time;durP1;ratioP1;P1;durP2;ratioP2;P2;SDS_P1;SDS_P2;PMS_P1;PMS_P2;Temp;Humidity;BMP_temperature;BMP_pressure;BME280_temperature;BME280_humidity;BME280_pressure;Samples;Min_cycle;Max_cycle;Signal;HPM_P1;HPM_P2
2022/05/03 00:01:36;;;;;;;7.53;5.60;;;;;;;9.32;70.43;101820.50;5118257;28;20066;-62
2022/05/03 00:04:19;;;;;;;10.68;5.90;;;;;;;9.27;70.56;101830.03;5118809;28;20024;-61
2022/05/03 00:07:13;;;;;;;7.13;6.07;;;;;;;9.25;70.01;101826.53;5118140;28;20445;-62
2022/05/03 00:09:43;;;;;;;7.70;5.93;;;;;;;9.18;70.87;101822.09;5118133;28;20350;-62
2022/05/03 00:12:13;;;;;;;6.18;5.30;;;;;;;9.22;71.22;101828.25;5117943;28;20107;-62
2022/05/03 00:14:44;;;;;;;8.65;6.00;;;;;;;9.14;70.98;101822.97;5118058;28;20038;-61
2022/05/03 00:17:13;;;;;;;7.93;5.65;;;;;;;9.12;71.22;101818.59;5117862;28;20042;-62
2022/05/03 00:19:38;;;;;;;7.45;5.70;;;;;;;9.08;71.36;101815.97;5117135;28;20037;-61
2022/05/03 00:22:04;;;;;;;9.38;5.82;;;;;;;9.03;71.38;101807.19;5117868;28;20038;-62
2022/05/03 00:24:30;;;;;;;7.85;5.85;;;;;;;9.04;71.85;101810.69;5114193;28;20124;-62
2022/05/03 00:26:55;;;;;;;8.30;5.43;;;;;;;8.96;71.90;101804.53;5117734;28;20394;-61
2022/05/03 00:29:21;;;;;;;10.25;5.97;;;;;;;8.99;72.13;101813.28;5117454;28;20035;-62
2022/05/03 00:31:46;;;;;;;8.13;5.78;;;;;;;8.89;71.99;101814.03;5117590;28;20409;-62
2022/05/03 00:34:13;;;;;;;6.70;5.95;;;;;;;8.90;72.44;101804.47;5117809;28;20122;-62
2022/05/03 00:36:38;;;;;;;7.95;6.18;;;;;;;8.78;72.05;101801.78;5117776;28;20060;-61
2022/05/03 00:39:03;;;;;;;7.50;6.10;;;;;;;8.63;72.54;101787.72;5117867;28;20113;-61
2022/05/03 00:42:09;;;;;;;7.97;6.05;;;;;;;8.71;72.04;101795.59;5117301;28;20038;-61
2022/05/03 00:45:03;;;;;;;8.32;6.10;;;;;;;8.64;72.15;101812.97;5112352;28;20117;-62
2022/05/03 00:47:33;;;;;;;7.10;5.65;;;;;;;8.60;72.80;101819.00;5116813;28;20461;-62
2022/05/03 00:50:15;;;;;;;9.05;6.30;;;;;;;8.54;72.14;101799.78;5117636;28;20050;-62
2022/05/03 00:52:49;;;;;;;8.70;6.43;;;;;;;8.60;72.62;101805.94;5117432;28;20031;-62
2022/05/03 00:55:51;;;;;;;7.75;5.80;;;;;;;8.67;72.56;101810.34;5117191;28;20093;-61
2022/05/03 00:58:41;;;;;;;7.18;5.28;;;;;;;8.66;72.23;101819.03;5117512;28;20038;-61
2022/05/03 01:01:45;;;;;;;6.85;5.85;;;;;;;8.65;71.93;101812.09;5117288;28;20100;-62
2022/05/03 01:04:40;;;;;;;7.20;5.22;;;;;;;8.53;71.93;101798.91;5064939;28;20048;-62
2022/05/03 01:07:21;;;;;;;8.57;5.93;;;;;;;8.51;72.37;101805.84;5117155;28;20126;-61
2022/05/03 01:10:06;;;;;;;7.93;5.68;;;;;;;8.52;72.49;101812.81;5116911;28;20039;-62
2022/05/03 01:12:53;;;;;;;7.50;5.78;;;;;;;8.49;73.12;101810.16;5116705;28;20038;-61
2022/05/03 01:15:22;;;;;;;8.30;5.93;;;;;;;8.45;73.49;101799.69;5117109;28;20031;-62
2022/05/03 01:18:29;;;;;;;8.52;6.13;;;;;;;8.44;72.66;101808.38;5117204;28;20104;-61
2022/05/03 01:21:09;;;;;;;7.68;6.03;;;;;;;8.35;72.96;101810.03;5116322;28;20031;-61
2022/05/03 01:24:03;;;;;;;10.10;6.82;;;;;;;8.33;73.17;101809.13;5116701;28;20159;-62
2022/05/03 01:26:46;;;;;;;8.60;5.90;;;;;;;8.32;73.63;101815.19;5095242;28;20406;-62
2022/05/03 01:29:32;;;;;;;8.35;6.20;;;;;;;8.32;73.15;101809.97;5095932;28;20032;-61
2022/05/03 01:32:03;;;;;;;11.15;6.13;;;;;;;8.21;73.64;101803.75;5095900;28;20110;-61
2022/05/03 01:34:29;;;;;;;8.85;5.75;;;;;;;8.21;74.30;101806.34;5096399;28;20020;-62
2022/05/03 01:37:00;;;;;;;7.47;6.05;;;;;;;8.25;73.98;101807.25;5096211;28;20057;-61
2022/05/03 01:39:38;;;;;;;6.90;5.72;;;;;;;8.19;74.47;101805.44;5095969;28;20474;-61
2022/05/03 01:42:13;;;;;;;8.43;6.20;;;;;;;8.20;74.29;101808.94;5095046;28;20039;-61
2022/05/03 01:44:40;;;;;;;7.88;6.30;;;;;;;8.14;74.29;101801.06;5095966;28;20039;-62
2022/05/03 01:47:29;;;;;;;6.93;6.07;;;;;;;8.12;73.66;101811.47;5095952;28;20337;-61
2022/05/03 01:50:18;;;;;;;8.90;6.30;;;;;;;8.04;74.39;101803.53;5094470;28;20479;-61
2022/05/03 01:53:08;;;;;;;8.30;6.03;;;;;;;8.04;74.25;101807.88;5095854;28;20028;-62
2022/05/03 01:55:55;;;;;;;8.38;5.90;;;;;;;8.03;74.64;101809.63;5095718;28;20433;-61
2022/05/03 01:58:45;;;;;;;11.93;6.13;;;;;;;7.87;74.90;101798.97;5095738;28;20095;-61
2022/05/03 02:01:53;;;;;;;8.38;6.18;;;;;;;7.84;74.27;101807.63;5095444;28;20118;-61
2022/05/03 02:04:47;;;;;;;10.13;6.57;;;;;;;7.86;74.97;101803.31;5032928;28;20033;-62
2022/05/03 02:07:37;;;;;;;9.55;6.03;;;;;;;7.80;75.04;101798.00;5095320;28;20335;-62
2022/05/03 02:10:21;;;;;;;8.75;6.38;;;;;;;7.73;75.61;101797.91;5095096;28;20032;-61
2022/05/03 02:12:57;;;;;;;8.82;6.47;;;;;;;7.66;75.70;101804.78;5095849;28;20031;-61
2022/05/03 02:15:44;;;;;;;7.50;6.05;;;;;;;7.68;75.17;101797.84;5095514;28;20358;-62
2022/05/03 02:18:26;;;;;;;7.28;6.50;;;;;;;7.66;75.43;101796.94;5095346;28;20101;-62
2022/05/03 02:21:26;;;;;;;11.13;6.25;;;;;;;7.69;75.76;101794.41;5094946;28;20425;-62
2022/05/03 02:24:02;;;;;;;9.18;6.38;;;;;;;7.64;75.58;101794.31;5081799;28;20043;-62
2022/05/03 02:26:38;;;;;;;8.20;6.20;;;;;;;7.59;76.00;101795.13;5094032;28;20090;-62
2022/05/03 02:29:10;;;;;;;7.95;6.13;;;;;;;7.54;76.38;101795.06;5095141;28;20432;-61
2022/05/03 02:31:48;;;;;;;10.18;7.20;;;;;;;7.53;75.72;101795.03;5095210;28;20059;-61
2022/05/03 02:34:16;;;;;;;7.57;6.05;;;;;;;7.49;76.15;101801.03;5095129;28;20032;-61
2022/05/03 02:36:47;;;;;;;10.18;6.40;;;;;;;7.43;76.08;101791.44;5095336;28;20062;-61
2022/05/03 02:39:14;;;;;;;8.38;6.30;;;;;;;7.42;76.21;101791.41;5095268;28;20028;-61
2022/05/03 02:41:40;;;;;;;8.35;6.43;;;;;;;7.45;76.20;101794.03;5094915;28;20028;-62
2022/05/03 02:44:07;;;;;;;7.18;6.38;;;;;;;7.43;75.86;101787.97;5094909;28;20039;-61
2022/05/03 02:46:54;;;;;;;8.00;5.93;;;;;;;7.45;75.50;101787.09;5094954;28;20028;-61
2022/05/03 02:50:07;;;;;;;7.55;6.32;;;;;;;7.46;74.94;101791.47;5095020;28;20031;-61
2022/05/03 02:52:51;;;;;;;9.38;6.40;;;;;;;7.47;75.99;101794.94;5032637;28;20044;-62
2022/05/03 02:55:40;;;;;;;8.75;6.70;;;;;;;7.47;75.77;101793.22;5095076;28;20331;-61
2022/05/03 02:58:33;;;;;;;8.00;6.65;;;;;;;7.24;75.61;101779.88;5094928;28;20097;-62
2022/05/03 03:04:19;;;;;;;9.23;6.30;;;;;;;7.31;75.77;101793.84;5095053;28;20097;-61
2022/05/03 03:06:45;;;;;;;7.50;5.93;;;;;;;7.34;75.71;101793.88;5095165;28;20036;-62
2022/05/03 03:09:17;;;;;;;8.50;6.00;;;;;;;7.33;75.52;101797.34;5094633;28;20085;-62
2022/05/03 03:12:13;;;;;;;8.80;6.47;;;;;;;7.26;75.27;101798.13;5095114;28;20028;-62
2022/05/03 03:14:48;;;;;;;7.85;6.07;;;;;;;7.20;75.97;101796.28;5094906;28;20081;-62
2022/05/03 03:17:21;;;;;;;8.80;6.38;;;;;;;7.16;76.06;101791.88;5094817;28;20446;-62
2022/05/03 03:19:59;;;;;;;7.85;6.30;;;;;;;7.15;75.84;101784.91;5094755;28;20032;-62
2022/05/03 03:22:30;;;;;;;9.10;6.25;;;;;;;7.18;76.04;101784.97;5094568;28;20032;-61
2022/05/03 03:24:57;;;;;;;7.90;6.18;;;;;;;7.12;76.78;101792.69;5094962;28;20032;-61
2022/05/03 03:27:24;;;;;;;8.30;6.03;;;;;;;7.05;76.24;101788.25;5113364;28;20044;-62
2022/05/03 03:29:54;;;;;;;9.15;6.68;;;;;;;7.06;76.51;101789.13;5115051;28;20415;-61
2022/05/03 03:32:24;;;;;;;8.40;6.70;;;;;;;7.03;76.36;101805.56;5114602;28;20466;-61
2022/05/03 03:34:53;;;;;;;8.75;6.20;;;;;;;6.99;76.85;101798.53;5114902;28;20032;-61
2022/05/03 03:37:23;;;;;;;9.65;6.53;;;;;;;6.96;76.62;101777.66;5115384;28;20082;-62
2022/05/03 03:39:48;;;;;;;8.50;6.53;;;;;;;7.02;76.36;101788.19;5115053;28;20086;-62
2022/05/03 03:42:13;;;;;;;9.95;6.70;;;;;;;7.02;76.16;101789.91;5115236;28;20056;-62
2022/05/03 03:44:39;;;;;;;8.30;6.25;;;;;;;6.96;76.31;101785.47;5114710;28;20055;-61
2022/05/03 03:47:04;;;;;;;9.15;6.43;;;;;;;6.92;76.60;101781.09;5114751;28;20027;-62
2022/05/03 03:49:30;;;;;;;10.02;6.50;;;;;;;6.97;76.35;101788.09;5114951;28;20039;-62
2022/05/03 03:51:57;;;;;;;7.65;6.03;;;;;;;6.98;76.72;101789.84;5114705;28;20027;-62
2022/05/03 03:54:23;;;;;;;10.77;6.15;;;;;;;6.92;76.54;101787.19;5115947;28;20042;-61
2022/05/03 03:56:50;;;;;;;8.30;6.30;;;;;;;6.94;76.61;101787.19;5118163;28;20027;-62
2022/05/03 03:59:16;;;;;;;8.30;6.43;;;;;;;6.93;76.86;101788.03;5118545;28;20110;-62
2022/05/03 04:01:43;;;;;;;8.73;6.47;;;;;;;6.92;77.12;101783.69;5118207;28;20458;-61
2022/05/03 04:04:08;;;;;;;8.38;6.45;;;;;;;6.91;77.07;101784.53;5118219;28;20346;-62
2022/05/03 04:06:35;;;;;;;7.32;5.97;;;;;;;6.81;76.88;101780.03;5118054;28;20031;-61
2022/05/03 04:09:00;;;;;;;8.32;6.30;;;;;;;6.84;77.54;101785.28;5118214;28;20043;-61
2022/05/03 04:11:25;;;;;;;11.90;7.13;;;;;;;6.85;77.04;101789.63;5100133;28;20586;-63
2022/05/03 04:13:52;;;;;;;8.75;6.45;;;;;;;6.83;77.08;101783.53;5117952;28;20036;-61
2022/05/03 04:16:17;;;;;;;7.97;6.50;;;;;;;6.83;78.34;101779.19;5118141;28;20038;-61
2022/05/03 04:18:46;;;;;;;10.18;6.65;;;;;;;6.91;77.38;101787.16;5117899;28;20031;-61
2022/05/03 04:21:20;;;;;;;9.35;6.78;;;;;;;6.94;76.98;101789.78;5118095;28;20031;-62
2022/05/03 04:23:45;;;;;;;9.35;6.57;;;;;;;7.03;77.26;101789.94;5118066;28;20032;-64
2022/05/03 04:26:14;;;;;;;10.35;6.68;;;;;;;7.08;76.79;101796.09;5117849;28;20096;-61
2022/05/03 04:28:41;;;;;;;9.60;6.88;;;;;;;7.04;76.47;101796.03;5117801;28;20484;-61
2022/05/03 04:31:06;;;;;;;10.30;6.47;;;;;;;7.01;77.19;101794.25;5117630;28;20043;-61
2022/05/03 04:33:32;;;;;;;10.00;6.97;;;;;;;7.05;76.97;101795.19;5117526;28;20036;-62
2022/05/03 04:35:57;;;;;;;8.93;6.70;;;;;;;7.07;76.36;101791.75;5117709;28;20506;-61
2022/05/03 04:38:23;;;;;;;9.43;6.60;;;;;;;7.14;76.61;101790.97;5117864;28;20355;-62
2022/05/03 04:40:48;;;;;;;11.25;7.25;;;;;;;7.13;77.03;101786.63;5117362;28;20057;-63
2022/05/03 04:43:14;;;;;;;8.98;7.15;;;;;;;7.19;76.86;101791.06;5117337;28;20058;-62
2022/05/03 04:45:39;;;;;;;10.38;6.78;;;;;;;7.20;76.94;101801.50;5117440;28;20096;-62
2022/05/03 04:48:05;;;;;;;8.68;6.68;;;;;;;7.26;76.55;101798.13;5117340;28;20119;-62
2022/05/03 04:50:31;;;;;;;9.88;7.32;;;;;;;7.33;76.88;101808.63;5117480;28;20023;-62
2022/05/03 04:52:57;;;;;;;9.50;7.20;;;;;;;7.32;76.81;101793.88;5117482;28;20050;-61
2022/05/03 04:55:23;;;;;;;10.73;7.60;;;;;;;7.37;76.04;101814.78;5117510;28;20481;-62
2022/05/03 04:57:49;;;;;;;9.07;7.28;;;;;;;7.30;76.42;101813.78;5117165;28;20039;-62
2022/05/03 05:00:15;;;;;;;10.10;7.60;;;;;;;7.36;76.61;101819.94;5117029;28;20035;-62
2022/05/03 05:02:40;;;;;;;11.90;7.25;;;;;;;7.23;76.12;101801.56;5117397;28;20027;-61
2022/05/03 05:05:06;;;;;;;10.07;7.50;;;;;;;7.34;76.88;101806.91;5116988;28;20076;-62
2022/05/03 05:07:31;;;;;;;9.90;7.40;;;;;;;7.33;76.64;101819.06;5117330;28;20030;-64
2022/05/03 05:12:41;;;;;;;9.48;7.40;;;;;;;7.29;76.64;101809.44;5117060;28;20046;-61
2022/05/03 05:15:06;;;;;;;10.70;7.93;;;;;;;7.25;76.45;101818.06;5116615;28;20043;-62
2022/05/03 05:17:35;;;;;;;9.98;7.82;;;;;;;7.23;76.53;101819.78;5116664;28;20032;-62
2022/05/03 05:20:00;;;;;;;13.73;8.30;;;;;;;7.27;76.88;101813.75;5116868;28;20039;-62
2022/05/03 05:22:26;;;;;;;9.63;8.35;;;;;;;7.28;76.70;101812.00;5116582;28;20032;-66
2022/05/03 05:24:51;;;;;;;11.10;7.45;;;;;;;7.29;76.59;101819.84;5116055;28;20032;-64
2022/05/03 05:27:17;;;;;;;10.40;7.63;;;;;;;7.29;76.57;101825.06;5116821;28;20443;-63
2022/05/03 05:29:42;;;;;;;11.27;7.88;;;;;;;7.30;77.35;101825.94;5116367;28;20055;-64
2022/05/03 05:32:08;;;;;;;9.45;8.05;;;;;;;7.32;77.10;101822.50;5116772;28;20028;-65
2022/05/03 05:34:33;;;;;;;11.43;7.90;;;;;;;7.21;76.97;101800.66;5116451;28;20035;-65
2022/05/03 05:36:58;;;;;;;11.00;8.13;;;;;;;7.36;76.82;101832.97;5116475;28;20037;-65
2022/05/03 05:39:24;;;;;;;10.98;7.72;;;;;;;7.44;77.37;101834.84;5116141;28;20058;-63
2022/05/03 05:41:55;;;;;;;10.38;7.57;;;;;;;7.54;76.88;101841.94;5116200;28;20130;-63
2022/05/03 05:44:20;;;;;;;12.35;8.23;;;;;;;7.58;77.17;101842.88;5116261;28;20035;-63
2022/05/03 05:46:46;;;;;;;12.40;8.13;;;;;;;7.61;76.52;101838.59;5116071;28;20491;-63
2022/05/03 05:49:11;;;;;;;11.10;8.32;;;;;;;7.62;76.60;101829.88;5116336;28;20425;-63
2022/05/03 05:51:36;;;;;;;12.95;8.13;;;;;;;7.63;76.64;101835.97;5115981;28;20036;-63
2022/05/03 05:54:01;;;;;;;14.63;7.47;;;;;;;7.67;76.36;101845.59;5116003;28;20043;-63
2022/05/03 05:56:26;;;;;;;9.95;8.13;;;;;;;7.68;76.55;101849.94;5115973;28;20041;-63
2022/05/03 05:58:52;;;;;;;11.25;8.65;;;;;;;7.74;76.85;101846.56;5115989;28;20023;-63
2022/05/03 06:01:23;;;;;;;11.85;8.25;;;;;;;7.76;76.83;101843.13;5115439;28;20032;-64
2022/05/03 06:03:49;;;;;;;12.00;8.13;;;;;;;7.80;76.27;101852.72;5115926;28;20035;-62
2022/05/03 06:06:14;;;;;;;11.95;8.15;;;;;;;7.80;76.44;101842.31;5115976;28;20039;-64
2022/05/03 06:08:39;;;;;;;11.82;7.93;;;;;;;7.83;76.64;101847.56;5115652;28;20171;-63
2022/05/03 06:11:04;;;;;;;12.35;8.60;;;;;;;7.91;76.44;101847.69;5115602;28;20036;-63
2022/05/03 06:13:30;;;;;;;12.18;8.52;;;;;;;7.93;75.79;101843.38;5115896;28;20039;-63
2022/05/03 06:16:06;;;;;;;12.63;8.57;;;;;;;7.98;75.85;101855.59;5115514;28;20057;-64
2022/05/03 06:18:31;;;;;;;11.13;8.68;;;;;;;7.93;75.67;101833.81;5115306;28;20031;-63
2022/05/03 06:20:57;;;;;;;12.20;8.88;;;;;;;8.06;75.77;101847.00;5115548;28;20028;-63
2022/05/03 06:23:22;;;;;;;18.73;8.90;;;;;;;8.16;75.12;101854.94;5115704;28;20430;-63
2022/05/03 06:25:48;;;;;;;9.93;7.78;;;;;;;8.23;73.83;101853.31;5115659;28;20127;-63
2022/05/03 06:28:14;;;;;;;12.45;8.43;;;;;;;8.27;74.21;101852.50;5115440;28;20024;-64
2022/05/03 06:30:40;;;;;;;14.38;8.32;;;;;;;8.34;73.90;101855.22;5115966;28;20044;-63
2022/05/03 06:33:06;;;;;;;10.60;7.93;;;;;;;8.42;73.41;101855.31;5115707;28;20093;-64
2022/05/03 06:35:31;;;;;;;9.73;7.65;;;;;;;8.52;73.03;101858.88;5115360;28;20431;-64
2022/05/03 06:37:56;;;;;;;14.10;7.88;;;;;;;8.59;72.76;101845.06;5115472;28;20093;-63
2022/05/03 06:40:22;;;;;;;11.32;8.10;;;;;;;8.71;71.24;101848.66;5115513;28;20350;-58
2022/05/03 06:42:47;;;;;;;9.88;7.50;;;;;;;8.80;70.73;101845.28;5115206;28;20027;-64
2022/05/03 06:45:12;;;;;;;12.35;7.40;;;;;;;8.89;70.61;101839.28;5112223;28;20040;-63
2022/05/03 06:47:39;;;;;;;13.43;7.55;;;;;;;9.01;70.79;101845.47;5115131;28;20458;-64
2022/05/03 06:50:05;;;;;;;10.63;7.38;;;;;;;9.18;68.89;101848.22;5115540;28;20039;-65
2022/05/03 06:52:31;;;;;;;10.73;7.30;;;;;;;9.26;67.89;101849.19;5115307;28;20335;-63
2022/05/03 06:54:56;;;;;;;14.10;6.82;;;;;;;9.70;67.90;101841.63;5115662;28;20032;-63
2022/05/03 06:57:21;;;;;;;9.10;6.18;;;;;;;11.06;61.84;101839.53;5115063;28;20035;-64
2022/05/03 06:59:47;;;;;;;6.82;5.63;;;;;;;11.70;58.11;101842.09;5114968;28;20027;-63
2022/05/03 07:02:12;;;;;;;8.73;5.30;;;;;;;11.46;57.56;101846.50;5114390;28;20431;-64
2022/05/03 07:04:37;;;;;;;6.60;4.78;;;;;;;11.13;58.11;101849.13;5113969;28;20089;-63
2022/05/03 07:07:03;;;;;;;6.13;4.82;;;;;;;11.00;57.57;101852.63;5114920;28;20378;-64
2022/05/03 07:09:28;;;;;;;6.10;4.78;;;;;;;10.80;55.78;101858.69;5114357;28;20036;-64
2022/05/03 07:11:53;;;;;;;7.72;4.38;;;;;;;10.62;56.76;101857.78;5113092;28;20350;-63
2022/05/03 07:14:19;;;;;;;6.43;4.53;;;;;;;10.53;56.63;101863.00;5113286;28;20039;-64
2022/05/03 07:16:44;;;;;;;8.77;5.13;;;;;;;10.49;58.60;101858.63;5113394;28;20028;-64
2022/05/03 07:24:38;;;;;;;6.28;4.30;;;;;;;10.49;55.85;101859.50;5113346;28;20511;-63
2022/05/03 07:27:04;;;;;;;5.95;4.25;;;;;;;10.56;55.69;101865.63;5113420;28;20047;-58
2022/05/03 07:29:29;;;;;;;5.43;4.28;;;;;;;10.56;54.74;101865.63;5113069;28;20032;-63
2022/05/03 07:31:55;;;;;;;6.28;3.65;;;;;;;10.65;53.86;101861.28;5117174;28;20236;-65
2022/05/03 07:34:20;;;;;;;5.78;3.67;;;;;;;10.76;52.05;101864.78;5116991;28;20407;-64
2022/05/03 07:36:45;;;;;;;4.80;3.55;;;;;;;10.82;51.50;101869.19;5117169;28;20047;-64
2022/05/03 07:39:10;;;;;;;6.38;3.50;;;;;;;10.85;51.09;101863.06;5098846;28;20028;-62
2022/05/03 07:41:36;;;;;;;3.88;3.05;;;;;;;10.92;49.82;101870.06;5117881;28;20062;-64
2022/05/03 07:44:02;;;;;;;3.42;3.13;;;;;;;10.95;47.85;101867.44;5118837;28;20346;-62
2022/05/03 07:46:27;;;;;;;3.55;3.00;;;;;;;10.93;48.60;101856.09;5115050;28;20040;-63
2022/05/03 07:48:54;;;;;;;5.53;3.33;;;;;;;10.95;47.86;101859.59;5118440;28;20038;-64
2022/05/03 07:51:20;;;;;;;5.57;3.50;;;;;;;10.97;48.40;101865.72;5118929;28;20028;-64
2022/05/03 07:53:45;;;;;;;3.50;3.15;;;;;;;11.00;48.99;101861.34;5118399;28;20342;-63
2022/05/03 07:56:10;;;;;;;4.80;3.67;;;;;;;11.08;49.42;101861.38;5118663;28;20023;-63
2022/05/03 07:58:36;;;;;;;7.38;3.60;;;;;;;11.11;48.68;101856.09;5118802;28;20392;-64
2022/05/03 08:01:01;;;;;;;5.07;3.72;;;;;;;11.22;49.66;101854.38;5118252;28;20036;-64
2022/05/03 08:03:27;;;;;;;5.45;3.78;;;;;;;11.28;49.92;101859.59;5118248;28;20045;-63
2022/05/03 08:05:52;;;;;;;9.00;4.10;;;;;;;11.36;48.54;101857.88;5117776;28;20038;-65
2022/05/03 08:08:17;;;;;;;7.38;3.90;;;;;;;11.44;47.78;101866.59;5118141;28;20024;-64
2022/05/03 08:10:45;;;;;;;6.45;4.05;;;;;;;11.45;48.61;101867.47;5118064;28;20035;-64
2022/05/03 08:13:11;;;;;;;5.97;4.43;;;;;;;11.47;47.84;101863.09;5118074;28;20054;-65
2022/05/03 08:15:36;;;;;;;7.72;4.00;;;;;;;11.56;49.27;101859.59;5118045;28;20024;-65
2022/05/03 08:18:01;;;;;;;6.32;4.22;;;;;;;11.58;49.34;101868.34;5117952;28;20092;-64
2022/05/03 08:20:27;;;;;;;6.40;4.25;;;;;;;11.69;48.64;101866.56;5114503;28;20028;-65
2022/05/03 08:22:52;;;;;;;5.68;4.40;;;;;;;11.73;49.33;101863.94;5116792;28;20080;-65
2022/05/03 08:25:18;;;;;;;6.30;4.53;;;;;;;11.80;48.13;101860.47;5117531;28;20036;-65
2022/05/03 08:27:43;;;;;;;6.72;4.22;;;;;;;11.81;48.31;101869.19;5117735;28;20070;-65
2022/05/03 08:30:09;;;;;;;6.85;4.28;;;;;;;11.86;48.40;101870.06;5099477;28;20051;-65
2022/05/03 08:32:35;;;;;;;6.53;5.30;;;;;;;11.96;49.67;101876.16;5117527;28;20359;-65
2022/05/03 08:35:01;;;;;;;6.22;4.55;;;;;;;12.08;49.96;101877.00;5117457;28;20035;-65
2022/05/03 08:42:54;;;;;;;8.18;5.32;;;;;;;12.24;49.88;101867.34;5117489;28;20047;-65
2022/05/03 08:45:24;;;;;;;10.13;5.88;;;;;;;12.31;50.25;101866.41;5117149;28;20023;-65
2022/05/03 08:47:51;;;;;;;10.40;6.50;;;;;;;12.34;49.64;101869.03;5114419;28;20374;-65
2022/05/03 08:50:20;;;;;;;7.28;6.40;;;;;;;12.44;50.55;101875.13;5117546;28;20024;-65
2022/05/03 08:53:01;;;;;;;7.63;5.70;;;;;;;12.54;50.27;101874.19;5117490;28;20043;-67
2022/05/03 08:55:27;;;;;;;8.40;6.60;;;;;;;12.77;50.38;101871.44;5117102;28;20092;-66
2022/05/03 08:57:53;;;;;;;9.93;6.88;;;;;;;13.14;49.82;101866.81;5117283;28;20023;-66
2022/05/03 09:00:20;;;;;;;7.50;6.10;;;;;;;14.61;47.08;101862.66;5099113;28;20036;-67
2022/05/03 09:02:46;;;;;;;9.15;6.43;;;;;;;16.25;43.89;101861.63;5117151;28;20065;-66
2022/05/03 09:05:12;;;;;;;7.93;6.10;;;;;;;17.52;41.10;101848.09;5117185;28;20035;-66
2022/05/03 09:07:44;;;;;;;7.90;6.45;;;;;;;18.10;39.50;101850.06;5117002;28;20038;-67
2022/05/03 09:10:15;;;;;;;8.63;6.30;;;;;;;18.09;39.30;101854.50;5117045;28;20031;-66
2022/05/03 09:12:41;;;;;;;10.82;6.80;;;;;;;17.81;39.64;101850.03;5116649;28;20043;-67
2022/05/03 09:15:07;;;;;;;8.02;6.53;;;;;;;17.23;41.15;101854.13;5116789;28;20032;-67
2022/05/03 09:17:40;;;;;;;10.38;6.90;;;;;;;16.93;42.20;101848.69;5116848;28;20034;-67
2022/05/03 09:26:14;;;;;;;9.18;7.05;;;;;;;15.59;45.61;101863.78;5116345;28;20472;-59
2022/05/03 09:29:02;;;;;;;8.77;6.38;;;;;;;15.48;46.58;101865.69;5116470;28;20063;-66
2022/05/03 09:31:36;;;;;;;11.52;6.78;;;;;;;15.59;46.41;101866.41;5102661;28;20058;-65
2022/05/03 09:34:19;;;;;;;8.65;6.55;;;;;;;15.54;46.46;101869.13;5116617;28;20327;-64
2022/05/03 09:36:46;;;;;;;11.85;7.15;;;;;;;15.56;46.36;101864.72;5116318;28;20110;-65
2022/05/03 09:39:29;;;;;;;8.68;7.10;;;;;;;15.73;47.15;101858.25;5116163;28;20450;-64
2022/05/03 09:42:12;;;;;;;8.65;6.93;;;;;;;15.97;47.91;101863.94;5116928;28;20300;-65
2022/05/03 09:44:58;;;;;;;9.45;6.32;;;;;;;16.08;46.96;101865.50;5116566;28;20028;-66
2022/05/03 09:47:25;;;;;;;9.00;6.68;;;;;;;16.08;46.26;101853.19;5116418;28;20458;-64
2022/05/03 09:49:51;;;;;;;7.00;5.97;;;;;;;16.29;46.91;101855.34;5115979;28;20032;-64
2022/05/03 09:52:36;;;;;;;8.30;6.80;;;;;;;16.32;47.10;101852.66;5115105;28;20032;-65
2022/05/03 09:55:07;;;;;;;7.85;6.05;;;;;;;16.40;45.97;101860.44;5116063;28;20027;-65
2022/05/03 09:57:34;;;;;;;7.82;5.85;;;;;;;16.51;46.41;101852.25;5098109;28;20032;-64
2022/05/03 10:00:01;;;;;;;8.00;6.30;;;;;;;16.69;46.54;101850.13;5116060;28;20092;-65
2022/05/03 10:02:28;;;;;;;9.82;7.22;;;;;;;16.79;45.19;101848.16;5116063;28;20032;-65
2022/05/03 10:04:58;;;;;;;11.23;7.45;;;;;;;16.70;45.31;101848.34;5115724;28;20438;-65
2022/05/03 10:07:25;;;;;;;10.50;6.93;;;;;;;16.86;46.89;101844.44;5116619;28;20028;-65
2022/05/03 10:09:51;;;;;;;9.43;7.25;;;;;;;16.87;44.91;101832.97;5116068;28;20043;-64
2022/05/03 10:12:17;;;;;;;7.65;6.47;;;;;;;17.08;46.66;101850.09;5115931;28;20031;-66
2022/05/03 10:14:44;;;;;;;9.48;6.43;;;;;;;17.23;46.29;101839.13;5115607;28;20039;-66
2022/05/03 10:20:39;;;;;;;7.97;5.65;;;;;;;17.54;45.48;101838.34;5116004;28;20503;-64
2022/05/03 10:23:21;;;;;;;8.70;6.47;;;;;;;17.70;45.47;101837.06;5115589;28;20026;-65
2022/05/03 10:25:46;;;;;;;11.60;6.97;;;;;;;17.66;45.18;101838.91;5115483;28;20070;-65
2022/05/03 10:28:12;;;;;;;8.70;7.00;;;;;;;17.65;44.60;101833.69;5115470;28;20427;-65
2022/05/03 10:30:40;;;;;;;9.30;6.63;;;;;;;17.93;43.94;101825.84;5115655;28;20067;-65
2022/05/03 10:33:20;;;;;;;9.73;7.65;;;;;;;18.02;44.87;101823.78;5115162;28;20042;-64
2022/05/03 10:35:49;;;;;;;8.90;6.70;;;;;;;18.09;45.10;101824.50;5115483;28;20028;-65
2022/05/03 10:38:15;;;;;;;9.55;7.43;;;;;;;17.89;43.06;101821.53;5115723;28;20027;-65
2022/05/03 10:40:47;;;;;;;7.57;6.32;;;;;;;18.14;44.68;101819.94;5115488;28;20430;-65
2022/05/03 10:43:23;;;;;;;8.30;5.90;;;;;;;18.00;42.82;101827.41;5115678;28;20024;-65
2022/05/03 10:45:51;;;;;;;8.48;6.05;;;;;;;17.95;44.14;101818.72;5115405;28;20035;-66
2022/05/03 10:48:30;;;;;;;6.05;5.32;;;;;;;18.06;44.56;101830.75;5114980;28;20059;-65
2022/05/03 10:51:01;;;;;;;9.35;7.13;;;;;;;18.10;43.61;101823.56;5112386;28;20036;-65
2022/05/03 10:53:32;;;;;;;7.90;6.35;;;;;;;18.24;43.83;101816.09;5115497;28;20027;-65
2022/05/03 10:56:09;;;;;;;7.43;6.20;;;;;;;18.14;43.29;101819.06;5115277;28;20032;-65
2022/05/03 10:58:35;;;;;;;8.57;6.80;;;;;;;17.88;43.94;101817.16;5115222;28;20019;-65
2022/05/03 11:01:18;;;;;;;9.93;7.10;;;;;;;18.06;44.90;101812.19;5115308;28;20084;-65
2022/05/03 11:03:54;;;;;;;8.98;7.35;;;;;;;18.44;44.14;101807.53;5116807;28;20035;-64
2022/05/03 11:06:19;;;;;;;9.60;7.32;;;;;;;18.42;43.45;101810.22;5119538;28;20096;-65
2022/05/03 11:11:42;;;;;;;8.85;6.15;;;;;;;18.71;42.55;101805.84;5119161;28;20032;-65
2022/05/03 11:14:16;;;;;;;8.82;6.78;;;;;;;18.25;43.34;101798.41;5119279;28;20106;-64
2022/05/03 11:16:47;;;;;;;8.88;6.30;;;;;;;17.91;43.91;101793.22;5119431;28;20035;-64
2022/05/03 11:19:16;;;;;;;8.73;7.03;;;;;;;17.89;43.96;101797.69;5119337;28;20085;-65
2022/05/03 11:21:43;;;;;;;8.05;6.97;;;;;;;18.19;44.13;101791.50;5118979;28;20088;-64
2022/05/03 11:24:23;;;;;;;8.80;6.80;;;;;;;18.38;44.05;101790.03;5119017;28;20023;-65
2022/05/03 11:26:52;;;;;;;7.93;6.53;;;;;;;18.90;43.38;101792.84;5118976;28;20083;-64
2022/05/03 11:29:18;;;;;;;8.25;6.03;;;;;;;19.19;41.75;101781.28;5100858;28;20189;-64
2022/05/03 11:31:47;;;;;;;8.15;6.10;;;;;;;18.93;41.46;101790.09;5119016;28;20084;-66
2022/05/03 11:34:13;;;;;;;9.55;7.15;;;;;;;18.47;43.12;101791.53;5118777;28;20035;-64
2022/05/03 11:36:41;;;;;;;9.55;7.10;;;;;;;18.05;43.64;101791.91;5118809;28;20344;-64
2022/05/03 11:39:08;;;;;;;10.20;7.10;;;;;;;17.78;45.21;101789.19;5118917;28;20038;-64
2022/05/03 11:41:33;;;;;;;11.00;7.60;;;;;;;17.83;44.61;101782.00;5118810;28;20110;-64
2022/05/03 11:43:59;;;;;;;7.97;6.88;;;;;;;18.20;44.69;101766.75;5118710;28;20116;-64
2022/05/03 11:46:24;;;;;;;8.40;6.57;;;;;;;18.59;43.90;101764.69;5118455;28;20068;-64
2022/05/03 11:49:00;;;;;;;6.88;5.72;;;;;;;18.99;42.86;101772.22;5118381;28;20035;-64
2022/05/03 11:57:16;;;;;;;9.10;7.13;;;;;;;18.88;43.79;101760.19;5118295;28;20065;-65
2022/05/03 11:59:43;;;;;;;9.65;6.78;;;;;;;18.85;43.80;101761.19;5118668;28;20027;-65
2022/05/03 12:02:11;;;;;;;8.85;6.78;;;;;;;18.82;43.49;101753.34;5118313;28;20173;-65
2022/05/03 12:04:36;;;;;;;6.63;5.07;;;;;;;18.74;43.39;101758.88;5118376;28;20020;-65
2022/05/03 12:07:02;;;;;;;7.07;5.97;;;;;;;18.66;42.64;101752.09;5117881;28;20545;-64
2022/05/03 12:09:35;;;;;;;10.68;6.47;;;;;;;18.60;43.71;101750.50;5118187;28;20036;-65
2022/05/03 12:14:44;;;;;;;7.65;4.85;;;;;;;18.51;42.94;101739.31;5116843;28;20049;-64
2022/05/03 12:17:09;;;;;;;5.30;4.60;;;;;;;18.59;42.35;101750.56;5118250;28;20118;-64
2022/05/03 12:19:37;;;;;;;5.93;4.07;;;;;;;18.58;42.32;101744.34;5117988;28;20038;-64
2022/05/03 12:22:13;;;;;;;6.30;4.10;;;;;;;18.68;41.96;101742.31;5117852;28;20027;-65